sensor_id;sensor_type;location;lat;lon;timestamp;P1;durP1;ratioP1;P2;durP2;ratioP2
31270;SDS011;17904;47.420;9.310;2022-09-16T00:00:34;14.30;;;9.07;;
31270;SDS011;17904;47.420;9.310;2022-09-16T00:03:01;10.38;;;6.65;;
31270;SDS011;17904;47.420;9.310;2022-09-16T00:05:28;9.18;;;7.57;;
31270;SDS011;17904;47.420;9.310;2022-09-16T00:07:55;7.43;;;6.20;;
31270;SDS011;17904;47.420;9.310;2022-09-16T00:10:22;11.88;;;8.07;;
31270;SDS011;17904;47.420;9.310;2022-09-16T00:12:49;8.52;;;6.43;;
31270;SDS011;17904;47.420;9.310;2022-09-16T00:15:16;9.18;;;7.20;;
31270;SDS011;17904;47.420;9.310;2022-09-16T00:17:44;6.70;;;5.97;;
31270;SDS011;17904;47.420;9.310;2022-09-16T00:20:11;11.20;;;7.75;;
31270;SDS011;17904;47.420;9.310;2022-09-16T00:22:38;8.98;;;6.65;;
31270;SDS011;17904;47.420;9.310;2022-09-16T00:25:05;8.95;;;6.43;;
31270;SDS011;17904;47.420;9.310;2022-09-16T00:27:32;10.45;;;7.75;;
31270;SDS011;17904;47.420;9.310;2022-09-16T00:29:59;7.53;;;6.63;;
31270;SDS011;17904;47.420;9.310;2022-09-16T00:34:53;9.48;;;6.68;;
31270;SDS011;17904;47.420;9.310;2022-09-16T00:37:20;12.45;;;7.60;;
31270;SDS011;17904;47.420;9.310;2022-09-16T00:39:47;9.77;;;8.77;;
31270;SDS011;17904;47.420;9.310;2022-09-16T00:42:14;12.10;;;10.65;;
31270;SDS011;17904;47.420;9.310;2022-09-16T00:44:55;9.93;;;8.50;;
31270;SDS011;17904;47.420;9.310;2022-09-16T00:47:36;9.85;;;8.73;;
31270;SDS011;17904;47.420;9.310;2022-09-16T00:50:19;12.88;;;7.65;;
31270;SDS011;17904;47.420;9.310;2022-09-16T00:52:56;11.68;;;9.20;;
31270;SDS011;17904;47.420;9.310;2022-09-16T00:55:26;13.60;;;9.88;;
31270;SDS011;17904;47.420;9.310;2022-09-16T00:57:56;12.25;;;9.35;;
31270;SDS011;17904;47.420;9.310;2022-09-16T01:00:35;14.13;;;10.15;;
31270;SDS011;17904;47.420;9.310;2022-09-16T01:03:03;13.27;;;8.40;;
31270;SDS011;17904;47.420;9.310;2022-09-16T01:05:31;10.10;;;8.43;;
31270;SDS011;17904;47.420;9.310;2022-09-16T01:07:59;12.38;;;9.52;;
31270;SDS011;17904;47.420;9.310;2022-09-16T01:10:26;9.32;;;8.13;;
31270;SDS011;17904;47.420;9.310;2022-09-16T01:12:54;9.10;;;7.78;;
31270;SDS011;17904;47.420;9.310;2022-09-16T01:15:31;9.30;;;7.15;;
31270;SDS011;17904;47.420;9.310;2022-09-16T01:41:05;10.43;;;5.97;;
31270;SDS011;17904;47.420;9.310;2022-09-16T01:43:44;9.98;;;6.25;;
31270;SDS011;17904;47.420;9.310;2022-09-16T01:54:56;6.22;;;4.43;;
31270;SDS011;17904;47.420;9.310;2022-09-16T01:57:48;5.00;;;4.22;;
31270;SDS011;17904;47.420;9.310;2022-09-16T02:00:19;5.25;;;4.05;;
31270;SDS011;17904;47.420;9.310;2022-09-16T02:03:06;8.25;;;4.35;;
31270;SDS011;17904;47.420;9.310;2022-09-16T02:08:20;5.10;;;4.28;;
31270;SDS011;17904;47.420;9.310;2022-09-16T02:10:57;4.28;;;3.85;;
31270;SDS011;17904;47.420;9.310;2022-09-16T02:16:03;5.35;;;4.05;;
31270;SDS011;17904;47.420;9.310;2022-09-16T02:18:34;6.13;;;3.97;;
31270;SDS011;17904;47.420;9.310;2022-09-16T02:21:04;4.05;;;3.53;;
31270;SDS011;17904;47.420;9.310;2022-09-16T02:23:38;7.30;;;4.35;;
31270;SDS011;17904;47.420;9.310;2022-09-16T02:26:10;5.53;;;4.15;;
31270;SDS011;17904;47.420;9.310;2022-09-16T02:28:41;4.75;;;3.83;;
31270;SDS011;17904;47.420;9.310;2022-09-16T02:31:11;5.03;;;3.67;;
31270;SDS011;17904;47.420;9.310;2022-09-16T02:33:53;4.20;;;3.50;;
31270;SDS011;17904;47.420;9.310;2022-09-16T02:36:27;4.97;;;3.70;;
31270;SDS011;17904;47.420;9.310;2022-09-16T02:38:56;4.78;;;3.90;;
31270;SDS011;17904;47.420;9.310;2022-09-16T02:41:29;4.90;;;3.33;;
31270;SDS011;17904;47.420;9.310;2022-09-16T02:46:30;7.35;;;4.45;;
31270;SDS011;17904;47.420;9.310;2022-09-16T02:49:51;5.65;;;5.03;;
31270;SDS011;17904;47.420;9.310;2022-09-16T02:57:58;10.30;;;4.75;;
31270;SDS011;17904;47.420;9.310;2022-09-16T03:00:26;7.90;;;5.60;;
31270;SDS011;17904;47.420;9.310;2022-09-16T03:02:56;10.55;;;5.30;;
31270;SDS011;17904;47.420;9.310;2022-09-16T03:05:27;7.43;;;4.40;;
31270;SDS011;17904;47.420;9.310;2022-09-16T03:07:54;4.65;;;4.18;;
31270;SDS011;17904;47.420;9.310;2022-09-16T03:10:23;4.38;;;3.97;;
31270;SDS011;17904;47.420;9.310;2022-09-16T03:13:05;5.43;;;4.57;;
31270;SDS011;17904;47.420;9.310;2022-09-16T03:18:50;5.57;;;4.35;;
31270;SDS011;17904;47.420;9.310;2022-09-16T03:21:50;5.07;;;4.47;;
31270;SDS011;17904;47.420;9.310;2022-09-16T03:24:36;5.80;;;3.72;;
31270;SDS011;17904;47.420;9.310;2022-09-16T03:27:18;5.07;;;3.63;;
31270;SDS011;17904;47.420;9.310;2022-09-16T03:29:54;10.10;;;6.70;;
31270;SDS011;17904;47.420;9.310;2022-09-16T03:32:29;7.47;;;6.68;;
31270;SDS011;17904;47.420;9.310;2022-09-16T03:35:20;6.60;;;5.90;;
31270;SDS011;17904;47.420;9.310;2022-09-16T03:38:01;7.32;;;6.00;;
31270;SDS011;17904;47.420;9.310;2022-09-16T03:40:28;5.22;;;4.72;;
31270;SDS011;17904;47.420;9.310;2022-09-16T03:42:57;6.80;;;5.90;;
31270;SDS011;17904;47.420;9.310;2022-09-16T03:45:24;6.20;;;5.55;;
31270;SDS011;17904;47.420;9.310;2022-09-16T03:47:52;6.15;;;5.55;;
31270;SDS011;17904;47.420;9.310;2022-09-16T03:50:19;5.32;;;4.80;;
31270;SDS011;17904;47.420;9.310;2022-09-16T03:52:46;4.93;;;4.43;;
31270;SDS011;17904;47.420;9.310;2022-09-16T03:55:13;10.18;;;5.50;;
31270;SDS011;17904;47.420;9.310;2022-09-16T03:57:42;5.80;;;5.20;;
31270;SDS011;17904;47.420;9.310;2022-09-16T04:00:09;7.38;;;5.30;;
31270;SDS011;17904;47.420;9.310;2022-09-16T04:02:39;5.93;;;4.95;;
31270;SDS011;17904;47.420;9.310;2022-09-16T04:05:06;12.80;;;6.28;;
31270;SDS011;17904;47.420;9.310;2022-09-16T04:07:34;11.52;;;6.53;;
31270;SDS011;17904;47.420;9.310;2022-09-16T04:10:02;9.48;;;6.97;;
31270;SDS011;17904;47.420;9.310;2022-09-16T04:12:30;8.73;;;6.45;;
31270;SDS011;17904;47.420;9.310;2022-09-16T04:14:57;8.50;;;6.20;;
31270;SDS011;17904;47.420;9.310;2022-09-16T04:17:26;7.05;;;4.80;;
31270;SDS011;17904;47.420;9.310;2022-09-16T04:19:56;10.02;;;6.30;;
31270;SDS011;17904;47.420;9.310;2022-09-16T04:22:23;9.02;;;6.97;;
31270;SDS011;17904;47.420;9.310;2022-09-16T04:24:50;8.43;;;6.45;;
31270;SDS011;17904;47.420;9.310;2022-09-16T04:29:44;5.78;;;4.60;;
31270;SDS011;17904;47.420;9.310;2022-09-16T04:32:11;6.22;;;5.03;;
31270;SDS011;17904;47.420;9.310;2022-09-16T04:34:38;9.95;;;6.70;;
31270;SDS011;17904;47.420;9.310;2022-09-16T04:37:05;9.50;;;6.75;;
31270;SDS011;17904;47.420;9.310;2022-09-16T04:39:33;9.40;;;5.95;;
31270;SDS011;17904;47.420;9.310;2022-09-16T04:44:26;8.43;;;6.32;;
31270;SDS011;17904;47.420;9.310;2022-09-16T04:46:55;16.85;;;7.72;;
31270;SDS011;17904;47.420;9.310;2022-09-16T04:49:22;11.73;;;6.55;;
31270;SDS011;17904;47.420;9.310;2022-09-16T04:51:49;9.05;;;6.47;;
31270;SDS011;17904;47.420;9.310;2022-09-16T04:54:17;9.13;;;6.60;;
31270;SDS011;17904;47.420;9.310;2022-09-16T04:56:44;7.25;;;6.53;;
31270;SDS011;17904;47.420;9.310;2022-09-16T04:59:12;9.05;;;6.13;;
31270;SDS011;17904;47.420;9.310;2022-09-16T05:01:39;9.68;;;5.72;;
31270;SDS011;17904;47.420;9.310;2022-09-16T05:04:09;7.82;;;6.53;;
31270;SDS011;17904;47.420;9.310;2022-09-16T05:06:38;12.02;;;7.47;;
31270;SDS011;17904;47.420;9.310;2022-09-16T05:09:06;10.90;;;6.72;;
31270;SDS011;17904;47.420;9.310;2022-09-16T05:11:35;9.15;;;7.15;;
31270;SDS011;17904;47.420;9.310;2022-09-16T05:14:09;8.00;;;7.07;;
31270;SDS011;17904;47.420;9.310;2022-09-16T05:16:42;9.38;;;6.30;;
31270;SDS011;17904;47.420;9.310;2022-09-16T05:19:10;11.40;;;7.63;;
31270;SDS011;17904;47.420;9.310;2022-09-16T05:21:38;10.63;;;6.43;;
31270;SDS011;17904;47.420;9.310;2022-09-16T05:24:07;11.15;;;7.80;;
31270;SDS011;17904;47.420;9.310;2022-09-16T05:26:36;12.70;;;7.53;;
31270;SDS011;17904;47.420;9.310;2022-09-16T05:29:06;13.50;;;6.18;;
31270;SDS011;17904;47.420;9.310;2022-09-16T05:31:36;10.25;;;8.15;;
31270;SDS011;17904;47.420;9.310;2022-09-16T05:34:06;8.10;;;6.95;;
31270;SDS011;17904;47.420;9.310;2022-09-16T05:36:43;9.73;;;7.00;;
31270;SDS011;17904;47.420;9.310;2022-09-16T05:39:13;8.40;;;7.40;;
31270;SDS011;17904;47.420;9.310;2022-09-16T05:41:55;8.30;;;6.55;;
31270;SDS011;17904;47.420;9.310;2022-09-16T05:44:24;10.00;;;7.75;;
31270;SDS011;17904;47.420;9.310;2022-09-16T05:46:52;8.65;;;7.68;;
31270;SDS011;17904;47.420;9.310;2022-09-16T05:49:19;9.45;;;6.85;;
31270;SDS011;17904;47.420;9.310;2022-09-16T05:51:47;14.38;;;7.55;;
31270;SDS011;17904;47.420;9.310;2022-09-16T05:54:15;9.45;;;8.18;;
31270;SDS011;17904;47.420;9.310;2022-09-16T05:56:44;11.55;;;8.98;;
31270;SDS011;17904;47.420;9.310;2022-09-16T05:59:11;10.80;;;8.00;;
31270;SDS011;17904;47.420;9.310;2022-09-16T06:01:39;8.23;;;7.28;;
31270;SDS011;17904;47.420;9.310;2022-09-16T06:04:09;8.60;;;7.13;;
31270;SDS011;17904;47.420;9.310;2022-09-16T06:06:41;9.00;;;7.70;;
31270;SDS011;17904;47.420;9.310;2022-09-16T06:09:17;6.20;;;5.55;;
31270;SDS011;17904;47.420;9.310;2022-09-16T06:11:47;7.68;;;6.30;;
31270;SDS011;17904;47.420;9.310;2022-09-16T06:14:15;8.02;;;6.93;;
31270;SDS011;17904;47.420;9.310;2022-09-16T06:16:43;9.68;;;6.60;;
31270;SDS011;17904;47.420;9.310;2022-09-16T06:19:15;9.63;;;7.72;;
31270;SDS011;17904;47.420;9.310;2022-09-16T06:21:43;15.18;;;8.57;;
31270;SDS011;17904;47.420;9.310;2022-09-16T06:24:12;16.88;;;9.23;;
31270;SDS011;17904;47.420;9.310;2022-09-16T06:26:40;13.68;;;8.77;;
31270;SDS011;17904;47.420;9.310;2022-09-16T06:29:08;10.23;;;8.88;;
31270;SDS011;17904;47.420;9.310;2022-09-16T06:31:36;9.90;;;8.07;;
31270;SDS011;17904;47.420;9.310;2022-09-16T06:34:04;9.73;;;7.00;;
31270;SDS011;17904;47.420;9.310;2022-09-16T06:36:33;11.23;;;7.85;;
31270;SDS011;17904;47.420;9.310;2022-09-16T06:39:05;9.50;;;7.72;;
31270;SDS011;17904;47.420;9.310;2022-09-16T06:41:33;9.18;;;6.88;;
31270;SDS011;17904;47.420;9.310;2022-09-16T06:44:00;7.68;;;6.13;;
31270;SDS011;17904;47.420;9.310;2022-09-16T06:46:27;6.10;;;5.00;;
31270;SDS011;17904;47.420;9.310;2022-09-16T06:48:56;5.03;;;4.43;;
31270;SDS011;17904;47.420;9.310;2022-09-16T06:51:30;7.65;;;6.85;;
31270;SDS011;17904;47.420;9.310;2022-09-16T06:54:01;5.90;;;5.13;;
31270;SDS011;17904;47.420;9.310;2022-09-16T06:56:30;8.13;;;5.28;;
31270;SDS011;17904;47.420;9.310;2022-09-16T06:58:59;8.25;;;5.78;;
31270;SDS011;17904;47.420;9.310;2022-09-16T07:01:27;8.38;;;5.88;;
31270;SDS011;17904;47.420;9.310;2022-09-16T07:03:55;7.80;;;4.95;;
31270;SDS011;17904;47.420;9.310;2022-09-16T07:06:26;7.28;;;5.72;;
31270;SDS011;17904;47.420;9.310;2022-09-16T07:09:14;8.35;;;5.88;;
31270;SDS011;17904;47.420;9.310;2022-09-16T07:11:42;6.45;;;4.90;;
31270;SDS011;17904;47.420;9.310;2022-09-16T07:14:09;7.38;;;5.85;;
31270;SDS011;17904;47.420;9.310;2022-09-16T07:16:36;13.88;;;5.72;;
31270;SDS011;17904;47.420;9.310;2022-09-16T07:19:03;6.78;;;5.68;;
31270;SDS011;17904;47.420;9.310;2022-09-16T07:21:31;7.50;;;5.15;;
31270;SDS011;17904;47.420;9.310;2022-09-16T07:23:59;6.70;;;4.35;;
31270;SDS011;17904;47.420;9.310;2022-09-16T07:26:28;8.60;;;5.70;;
31270;SDS011;17904;47.420;9.310;2022-09-16T07:28:57;8.80;;;5.32;;
31270;SDS011;17904;47.420;9.310;2022-09-16T07:31:26;10.82;;;5.82;;
31270;SDS011;17904;47.420;9.310;2022-09-16T07:33:56;9.73;;;7.40;;
31270;SDS011;17904;47.420;9.310;2022-09-16T07:36:33;8.13;;;5.07;;
31270;SDS011;17904;47.420;9.310;2022-09-16T07:39:02;8.27;;;5.65;;
31270;SDS011;17904;47.420;9.310;2022-09-16T07:41:34;9.57;;;5.05;;
31270;SDS011;17904;47.420;9.310;2022-09-16T07:44:04;6.28;;;4.80;;
31270;SDS011;17904;47.420;9.310;2022-09-16T07:46:33;7.38;;;5.50;;
31270;SDS011;17904;47.420;9.310;2022-09-16T07:49:03;7.97;;;5.68;;
31270;SDS011;17904;47.420;9.310;2022-09-16T07:51:31;8.32;;;5.45;;
31270;SDS011;17904;47.420;9.310;2022-09-16T07:54:00;9.40;;;5.90;;
31270;SDS011;17904;47.420;9.310;2022-09-16T07:56:31;6.60;;;5.35;;
31270;SDS011;17904;47.420;9.310;2022-09-16T07:59:00;8.27;;;6.07;;
31270;SDS011;17904;47.420;9.310;2022-09-16T08:01:29;6.75;;;5.22;;
31270;SDS011;17904;47.420;9.310;2022-09-16T08:03:56;7.07;;;5.15;;
31270;SDS011;17904;47.420;9.310;2022-09-16T08:06:26;8.93;;;6.93;;
31270;SDS011;17904;47.420;9.310;2022-09-16T08:08:55;10.48;;;4.78;;
31270;SDS011;17904;47.420;9.310;2022-09-16T08:11:45;6.82;;;5.25;;
31270;SDS011;17904;47.420;9.310;2022-09-16T08:14:12;11.02;;;5.10;;
31270;SDS011;17904;47.420;9.310;2022-09-16T08:16:39;11.95;;;5.93;;
31270;SDS011;17904;47.420;9.310;2022-09-16T08:19:07;10.43;;;5.25;;
31270;SDS011;17904;47.420;9.310;2022-09-16T08:21:35;13.32;;;6.75;;
31270;SDS011;17904;47.420;9.310;2022-09-16T08:24:02;9.18;;;5.45;;
31270;SDS011;17904;47.420;9.310;2022-09-16T08:26:30;9.32;;;4.85;;
31270;SDS011;17904;47.420;9.310;2022-09-16T08:28:58;8.38;;;4.55;;
31270;SDS011;17904;47.420;9.310;2022-09-16T08:31:36;7.28;;;4.57;;
31270;SDS011;17904;47.420;9.310;2022-09-16T08:36:11;11.68;;;4.57;;
31270;SDS011;17904;47.420;9.310;2022-09-16T08:38:45;8.65;;;5.28;;
31270;SDS011;17904;47.420;9.310;2022-09-16T08:46:42;7.07;;;4.80;;
31270;SDS011;17904;47.420;9.310;2022-09-16T08:55:02;8.93;;;5.10;;
31270;SDS011;17904;47.420;9.310;2022-09-16T08:57:32;5.70;;;4.10;;
31270;SDS011;17904;47.420;9.310;2022-09-16T09:00:14;8.05;;;4.88;;
31270;SDS011;17904;47.420;9.310;2022-09-16T09:05:50;18.25;;;5.57;;
31270;SDS011;17904;47.420;9.310;2022-09-16T09:11:29;8.18;;;5.57;;
31270;SDS011;17904;47.420;9.310;2022-09-16T09:25:50;10.60;;;5.60;;
31270;SDS011;17904;47.420;9.310;2022-09-16T09:33:53;11.13;;;5.72;;
31270;SDS011;17904;47.420;9.310;2022-09-16T09:36:39;12.32;;;5.93;;
31270;SDS011;17904;47.420;9.310;2022-09-16T09:39:34;8.93;;;5.25;;
31270;SDS011;17904;47.420;9.310;2022-09-16T09:47:55;10.85;;;5.32;;
31270;SDS011;17904;47.420;9.310;2022-09-16T09:50:34;8.77;;;4.88;;
31270;SDS011;17904;47.420;9.310;2022-09-16T09:56:17;7.82;;;5.03;;
31270;SDS011;17904;47.420;9.310;2022-09-16T09:59:19;9.05;;;5.25;;
31270;SDS011;17904;47.420;9.310;2022-09-16T10:01:53;5.95;;;4.60;;
31270;SDS011;17904;47.420;9.310;2022-09-16T10:04:23;5.80;;;4.72;;
31270;SDS011;17904;47.420;9.310;2022-09-16T10:06:52;5.18;;;3.97;;
31270;SDS011;17904;47.420;9.310;2022-09-16T10:09:22;9.05;;;4.47;;
31270;SDS011;17904;47.420;9.310;2022-09-16T10:11:56;14.57;;;4.82;;
31270;SDS011;17904;47.420;9.310;2022-09-16T10:14:36;5.82;;;4.13;;
31270;SDS011;17904;47.420;9.310;2022-09-16T10:17:13;8.00;;;4.88;;
31270;SDS011;17904;47.420;9.310;2022-09-16T10:20:17;6.18;;;4.55;;
31270;SDS011;17904;47.420;9.310;2022-09-16T10:23:13;9.30;;;5.63;;
31270;SDS011;17904;47.420;9.310;2022-09-16T10:26:02;8.23;;;5.32;;
31270;SDS011;17904;47.420;9.310;2022-09-16T10:28:53;8.95;;;5.28;;
31270;SDS011;17904;47.420;9.310;2022-09-16T10:31:28;5.88;;;4.68;;
31270;SDS011;17904;47.420;9.310;2022-09-16T10:34:16;7.65;;;5.07;;
31270;SDS011;17904;47.420;9.310;2022-09-16T10:37:00;8.00;;;4.80;;
31270;SDS011;17904;47.420;9.310;2022-09-16T10:39:41;7.40;;;4.28;;
31270;SDS011;17904;47.420;9.310;2022-09-16T10:42:16;7.50;;;4.50;;
31270;SDS011;17904;47.420;9.310;2022-09-16T10:44:48;10.98;;;6.03;;
31270;SDS011;17904;47.420;9.310;2022-09-16T10:47:26;10.43;;;3.83;;
31270;SDS011;17904;47.420;9.310;2022-09-16T10:49:58;6.78;;;4.15;;
31270;SDS011;17904;47.420;9.310;2022-09-16T10:52:30;6.88;;;3.65;;
31270;SDS011;17904;47.420;9.310;2022-09-16T10:55:11;6.22;;;3.60;;
31270;SDS011;17904;47.420;9.310;2022-09-16T10:58:12;8.90;;;3.70;;
31270;SDS011;17904;47.420;9.310;2022-09-16T11:00:49;5.57;;;3.75;;
31270;SDS011;17904;47.420;9.310;2022-09-16T11:06:29;8.57;;;3.60;;
31270;SDS011;17904;47.420;9.310;2022-09-16T11:09:18;7.00;;;4.03;;
31270;SDS011;17904;47.420;9.310;2022-09-16T11:15:08;11.60;;;4.20;;
31270;SDS011;17904;47.420;9.310;2022-09-16T11:17:43;12.25;;;5.03;;
31270;SDS011;17904;47.420;9.310;2022-09-16T11:23:01;11.52;;;7.70;;
31270;SDS011;17904;47.420;9.310;2022-09-16T11:25:52;8.23;;;5.85;;
31270;SDS011;17904;47.420;9.310;2022-09-16T11:31:13;11.57;;;6.43;;
31270;SDS011;17904;47.420;9.310;2022-09-16T11:37:00;19.98;;;7.20;;
31270;SDS011;17904;47.420;9.310;2022-09-16T11:42:58;13.65;;;7.75;;
31270;SDS011;17904;47.420;9.310;2022-09-16T11:45:50;12.75;;;7.22;;
31270;SDS011;17904;47.420;9.310;2022-09-16T11:48:33;10.07;;;8.02;;
31270;SDS011;17904;47.420;9.310;2022-09-16T11:56:44;9.90;;;7.35;;
31270;SDS011;17904;47.420;9.310;2022-09-16T12:02:24;17.27;;;9.57;;
31270;SDS011;17904;47.420;9.310;2022-09-16T12:07:37;17.52;;;9.20;;
31270;SDS011;17904;47.420;9.310;2022-09-16T12:10:19;13.02;;;8.77;;
31270;SDS011;17904;47.420;9.310;2022-09-16T12:12:52;15.55;;;10.57;;
31270;SDS011;17904;47.420;9.310;2022-09-16T12:15:44;19.83;;;14.43;;
31270;SDS011;17904;47.420;9.310;2022-09-16T12:20:51;21.95;;;11.90;;
31270;SDS011;17904;47.420;9.310;2022-09-16T12:23:28;13.45;;;10.02;;
31270;SDS011;17904;47.420;9.310;2022-09-16T12:29:08;13.63;;;11.25;;
31270;SDS011;17904;47.420;9.310;2022-09-16T12:34:45;15.63;;;8.52;;
31270;SDS011;17904;47.420;9.310;2022-09-16T12:37:28;12.88;;;10.20;;
31270;SDS011;17904;47.420;9.310;2022-09-16T12:40:49;14.90;;;10.57;;
31270;SDS011;17904;47.420;9.310;2022-09-16T13:03:41;12.98;;;10.20;;
31270;SDS011;17904;47.420;9.310;2022-09-16T13:06:32;12.35;;;9.73;;
31270;SDS011;17904;47.420;9.310;2022-09-16T13:09:13;10.80;;;9.25;;
31270;SDS011;17904;47.420;9.310;2022-09-16T13:14:46;12.30;;;8.82;;
31270;SDS011;17904;47.420;9.310;2022-09-16T13:17:26;12.50;;;10.23;;
31270;SDS011;17904;47.420;9.310;2022-09-16T13:22:31;15.77;;;12.20;;
31270;SDS011;17904;47.420;9.310;2022-09-16T13:27:36;11.40;;;10.20;;
31270;SDS011;17904;47.420;9.310;2022-09-16T13:30:11;6.93;;;6.25;;
31270;SDS011;17904;47.420;9.310;2022-09-16T13:32:44;5.88;;;5.13;;
31270;SDS011;17904;47.420;9.310;2022-09-16T13:36:02;4.80;;;4.28;;
31270;SDS011;17904;47.420;9.310;2022-09-16T13:38:40;5.32;;;4.47;;
31270;SDS011;17904;47.420;9.310;2022-09-16T13:41:10;4.30;;;3.90;;
31270;SDS011;17904;47.420;9.310;2022-09-16T13:46:12;3.92;;;3.20;;
31270;SDS011;17904;47.420;9.310;2022-09-16T13:48:57;6.05;;;4.25;;
31270;SDS011;17904;47.420;9.310;2022-09-16T13:51:24;4.43;;;3.75;;
31270;SDS011;17904;47.420;9.310;2022-09-16T13:53:52;5.43;;;4.03;;
31270;SDS011;17904;47.420;9.310;2022-09-16T13:59:23;9.15;;;4.72;;
31270;SDS011;17904;47.420;9.310;2022-09-16T14:02:12;3.78;;;3.28;;
31270;SDS011;17904;47.420;9.310;2022-09-16T14:13:42;7.63;;;5.45;;
31270;SDS011;17904;47.420;9.310;2022-09-16T14:16:22;6.10;;;5.45;;
31270;SDS011;17904;47.420;9.310;2022-09-16T14:19:04;6.65;;;4.70;;
31270;SDS011;17904;47.420;9.310;2022-09-16T14:22:03;7.88;;;5.20;;
31270;SDS011;17904;47.420;9.310;2022-09-16T14:24:37;6.60;;;4.70;;
31270;SDS011;17904;47.420;9.310;2022-09-16T14:27:16;5.63;;;4.65;;
31270;SDS011;17904;47.420;9.310;2022-09-16T14:30:08;4.80;;;4.20;;
31270;SDS011;17904;47.420;9.310;2022-09-16T14:32:40;7.63;;;4.28;;
31270;SDS011;17904;47.420;9.310;2022-09-16T14:35:08;9.82;;;6.35;;
31270;SDS011;17904;47.420;9.310;2022-09-16T14:37:37;7.38;;;5.68;;
31270;SDS011;17904;47.420;9.310;2022-09-16T14:40:09;6.50;;;5.47;;
31270;SDS011;17904;47.420;9.310;2022-09-16T14:42:47;6.03;;;4.82;;
31270;SDS011;17904;47.420;9.310;2022-09-16T14:45:19;9.25;;;6.07;;
31270;SDS011;17904;47.420;9.310;2022-09-16T14:47:47;11.65;;;6.95;;
31270;SDS011;17904;47.420;9.310;2022-09-16T14:50:23;7.32;;;5.47;;
31270;SDS011;17904;47.420;9.310;2022-09-16T14:52:57;10.10;;;7.57;;
31270;SDS011;17904;47.420;9.310;2022-09-16T14:55:26;9.60;;;7.35;;
31270;SDS011;17904;47.420;9.310;2022-09-16T14:57:56;9.20;;;6.03;;
31270;SDS011;17904;47.420;9.310;2022-09-16T15:00:24;14.02;;;7.90;;
31270;SDS011;17904;47.420;9.310;2022-09-16T15:02:57;8.95;;;6.30;;
31270;SDS011;17904;47.420;9.310;2022-09-16T15:08:14;7.97;;;6.07;;
31270;SDS011;17904;47.420;9.310;2022-09-16T15:10:44;7.85;;;5.72;;
31270;SDS011;17904;47.420;9.310;2022-09-16T15:13:22;7.38;;;5.60;;
31270;SDS011;17904;47.420;9.310;2022-09-16T15:15:53;6.85;;;6.10;;
31270;SDS011;17904;47.420;9.310;2022-09-16T15:18:29;9.38;;;6.45;;
31270;SDS011;17904;47.420;9.310;2022-09-16T15:21:17;9.48;;;8.02;;
31270;SDS011;17904;47.420;9.310;2022-09-16T15:23:54;11.93;;;8.38;;
31270;SDS011;17904;47.420;9.310;2022-09-16T15:26:25;10.98;;;7.22;;
31270;SDS011;17904;47.420;9.310;2022-09-16T15:29:00;8.45;;;6.80;;
31270;SDS011;17904;47.420;9.310;2022-09-16T15:31:30;9.25;;;6.90;;
31270;SDS011;17904;47.420;9.310;2022-09-16T15:34:01;10.93;;;7.88;;
31270;SDS011;17904;47.420;9.310;2022-09-16T15:39:23;10.05;;;7.47;;
31270;SDS011;17904;47.420;9.310;2022-09-16T15:44:42;10.10;;;7.13;;
31270;SDS011;17904;47.420;9.310;2022-09-16T15:47:23;7.88;;;5.50;;
31270;SDS011;17904;47.420;9.310;2022-09-16T15:49:56;8.20;;;7.13;;
31270;SDS011;17904;47.420;9.310;2022-09-16T15:52:40;5.95;;;5.35;;
31270;SDS011;17904;47.420;9.310;2022-09-16T15:55:29;10.60;;;6.63;;
31270;SDS011;17904;47.420;9.310;2022-09-16T16:00:52;5.82;;;4.93;;
31270;SDS011;17904;47.420;9.310;2022-09-16T16:06:10;8.10;;;5.20;;
31270;SDS011;17904;47.420;9.310;2022-09-16T16:08:50;8.40;;;6.82;;
31270;SDS011;17904;47.420;9.310;2022-09-16T16:11:20;7.22;;;6.43;;
31270;SDS011;17904;47.420;9.310;2022-09-16T16:13:48;8.10;;;5.70;;
31270;SDS011;17904;47.420;9.310;2022-09-16T16:16:16;9.48;;;6.57;;
31270;SDS011;17904;47.420;9.310;2022-09-16T16:18:44;10.80;;;7.90;;
31270;SDS011;17904;47.420;9.310;2022-09-16T16:21:13;7.55;;;6.35;;
31270;SDS011;17904;47.420;9.310;2022-09-16T16:23:41;6.43;;;5.30;;
31270;SDS011;17904;47.420;9.310;2022-09-16T16:26:09;6.80;;;5.57;;
31270;SDS011;17904;47.420;9.310;2022-09-16T16:28:37;9.32;;;6.47;;
31270;SDS011;17904;47.420;9.310;2022-09-16T16:33:34;7.35;;;6.43;;
31270;SDS011;17904;47.420;9.310;2022-09-16T16:36:02;8.95;;;7.07;;
31270;SDS011;17904;47.420;9.310;2022-09-16T16:38:29;8.52;;;7.05;;
31270;SDS011;17904;47.420;9.310;2022-09-16T16:40:56;10.70;;;9.07;;
31270;SDS011;17904;47.420;9.310;2022-09-16T16:43:23;10.68;;;7.10;;
31270;SDS011;17904;47.420;9.310;2022-09-16T16:45:56;7.95;;;6.82;;
31270;SDS011;17904;47.420;9.310;2022-09-16T16:48:25;8.25;;;6.97;;
31270;SDS011;17904;47.420;9.310;2022-09-16T16:50:57;12.40;;;7.10;;
31270;SDS011;17904;47.420;9.310;2022-09-16T16:53:26;8.07;;;6.88;;
31270;SDS011;17904;47.420;9.310;2022-09-16T16:55:54;9.88;;;6.90;;
31270;SDS011;17904;47.420;9.310;2022-09-16T16:58:35;7.70;;;6.80;;
31270;SDS011;17904;47.420;9.310;2022-09-16T17:01:09;11.43;;;6.90;;
31270;SDS011;17904;47.420;9.310;2022-09-16T17:03:42;9.27;;;8.00;;
31270;SDS011;17904;47.420;9.310;2022-09-16T17:06:12;9.25;;;6.07;;
31270;SDS011;17904;47.420;9.310;2022-09-16T17:11:07;9.70;;;8.27;;
31270;SDS011;17904;47.420;9.310;2022-09-16T17:13:36;12.63;;;9.60;;
31270;SDS011;17904;47.420;9.310;2022-09-16T17:16:04;11.18;;;8.23;;
31270;SDS011;17904;47.420;9.310;2022-09-16T17:18:33;11.70;;;8.93;;
31270;SDS011;17904;47.420;9.310;2022-09-16T17:21:05;11.23;;;8.80;;
31270;SDS011;17904;47.420;9.310;2022-09-16T17:23:34;10.40;;;7.95;;
31270;SDS011;17904;47.420;9.310;2022-09-16T17:26:01;10.35;;;8.35;;
31270;SDS011;17904;47.420;9.310;2022-09-16T17:28:30;17.52;;;14.23;;
31270;SDS011;17904;47.420;9.310;2022-09-16T17:30:57;14.25;;;11.30;;
31270;SDS011;17904;47.420;9.310;2022-09-16T17:33:24;18.95;;;9.27;;
31270;SDS011;17904;47.420;9.310;2022-09-16T17:36:01;9.98;;;8.27;;
31270;SDS011;17904;47.420;9.310;2022-09-16T17:38:32;11.07;;;9.77;;
31270;SDS011;17904;47.420;9.310;2022-09-16T17:41:04;13.15;;;9.65;;
31270;SDS011;17904;47.420;9.310;2022-09-16T17:43:33;18.45;;;13.80;;
31270;SDS011;17904;47.420;9.310;2022-09-16T17:46:01;15.55;;;12.32;;
31270;SDS011;17904;47.420;9.310;2022-09-16T17:48:29;20.63;;;16.42;;
31270;SDS011;17904;47.420;9.310;2022-09-16T17:50:57;21.52;;;15.65;;
31270;SDS011;17904;47.420;9.310;2022-09-16T17:53:25;17.42;;;11.70;;
31270;SDS011;17904;47.420;9.310;2022-09-16T17:55:59;13.23;;;10.68;;
31270;SDS011;17904;47.420;9.310;2022-09-16T17:58:27;14.25;;;9.07;;
31270;SDS011;17904;47.420;9.310;2022-09-16T18:00:55;17.23;;;12.90;;
31270;SDS011;17904;47.420;9.310;2022-09-16T18:03:28;13.02;;;9.45;;
31270;SDS011;17904;47.420;9.310;2022-09-16T18:06:01;14.73;;;9.82;;
31270;SDS011;17904;47.420;9.310;2022-09-16T18:08:29;14.63;;;9.38;;
31270;SDS011;17904;47.420;9.310;2022-09-16T18:10:57;13.57;;;10.55;;
31270;SDS011;17904;47.420;9.310;2022-09-16T18:13:24;12.70;;;9.27;;
31270;SDS011;17904;47.420;9.310;2022-09-16T18:15:51;13.05;;;7.65;;
31270;SDS011;17904;47.420;9.310;2022-09-16T18:18:18;10.90;;;7.50;;
31270;SDS011;17904;47.420;9.310;2022-09-16T18:20:52;10.75;;;7.28;;
31270;SDS011;17904;47.420;9.310;2022-09-16T18:23:20;10.10;;;8.25;;
31270;SDS011;17904;47.420;9.310;2022-09-16T18:25:47;9.25;;;7.75;;
31270;SDS011;17904;47.420;9.310;2022-09-16T18:28:15;8.32;;;6.55;;
31270;SDS011;17904;47.420;9.310;2022-09-16T18:30:42;7.05;;;6.35;;
31270;SDS011;17904;47.420;9.310;2022-09-16T18:33:10;10.02;;;6.93;;
31270;SDS011;17904;47.420;9.310;2022-09-16T18:35:37;13.30;;;10.55;;
31270;SDS011;17904;47.420;9.310;2022-09-16T18:38:05;11.77;;;7.47;;